Time;durP1;ratioP1;P1;durP2;ratioP2;P2;SDS_P1;SDS_P2;PMS_P1;PMS_P2;Temp;Humidity;BMP_temperature;BMP_pressure;BME280_temperature;BME280_humidity;BME280_pressure;Samples;Min_cycle;Max_cycle;Signal;HPM_P1;HPM_P2
2021/10/30 00:01:54;;;;;;;;;;;;;;;;;;5087546;28;19911;-51
2021/10/30 00:04:20;;;;;;;;;;;;;;;;;;5086976;28;19926;-52
2021/10/30 00:06:46;;;;;;;;;;;;;;;;;;5087345;28;19931;-51
2021/10/30 00:09:12;;;;;;;;;;;;;;;;;;5086464;28;19969;-51
2021/10/30 00:11:37;;;;;;;;;;;;;;;;;;5087089;28;19992;-50
2021/10/30 00:14:03;;;;;;;;;;;;;;;;;;5087261;28;19900;-48
2021/10/30 00:16:29;;;;;;;;;;;;;;;;;;5087323;28;19911;-48
2021/10/30 00:18:55;;;;;;;;;;;;;;;;;;5068596;28;19916;-49
2021/10/30 00:21:22;;;;;;;;;;;;;;;;;;5066746;28;19999;-48
2021/10/30 00:23:48;;;;;;;;;;;;;;;;;;5066924;28;19931;-49
2021/10/30 00:26:14;;;;;;;;;;;;;;;;;;5086294;28;19916;-53
2021/10/30 00:28:40;;;;;;;;;;;;;;;;;;5087363;28;19923;-52
2021/10/30 00:31:06;;;;;;;;;;;;;;;;;;5086927;28;19908;-52
2021/10/30 00:33:32;;;;;;;;;;;;;;;;;;5086865;28;19919;-52
2021/10/30 00:35:58;;;;;;;;;;;;;;;;;;5083476;28;19946;-48
2021/10/30 00:38:24;;;;;;;;;;;;;;;;;;5086963;28;19911;-49
2021/10/30 00:40:50;;;;;;;;;;;;;;;;;;5085142;28;19908;-53
2021/10/30 00:43:16;;;;;;;;;;;;;;;;;;5086775;28;19915;-51
2021/10/30 00:45:42;;;;;;;;;;;;;;;;;;5067367;28;20573;-51
2021/10/30 00:48:08;;;;;;;;;;;;;;;;;;5065741;28;19912;-51
2021/10/30 00:50:34;;;;;;;;;;;;;;;;;;5069785;28;19908;-52
2021/10/30 00:53:00;;;;;;;;;;;;;;;;;;5086722;28;19990;-48
2021/10/30 00:55:27;;;;;;;;;;;;;;;;;;5086642;28;19916;-51
2021/10/30 00:57:53;;;;;;;;;;;;;;;;;;5087386;28;19918;-51
2021/10/30 01:00:18;;;;;;;;;;;;;;;;;;5089791;28;20270;-52
2021/10/30 01:02:45;;;;;;;;;;;;;;;;;;5091240;28;19904;-51
2021/10/30 01:05:11;;;;;;;;;;;;;;;;;;5091231;28;19999;-52
2021/10/30 01:07:37;;;;;;;;;;;;;;;;;;5088749;28;20031;-52
2021/10/30 01:10:03;;;;;;;;;;;;;;;;;;5090432;28;19916;-50
2021/10/30 01:12:30;;;;;;;;;;;;;;;;;;5078607;28;19908;-51
2021/10/30 01:14:56;;;;;;;;;;;;;;;;;;5090646;28;20250;-49
2021/10/30 01:17:22;;;;;;;;;;;;;;;;;;5090598;28;20003;-53
2021/10/30 01:19:48;;;;;;;;;;;;;;;;;;5079766;28;19965;-50
2021/10/30 01:22:15;;;;;;;;;;;;;;;;;;5070598;28;19972;-51
2021/10/30 01:24:41;;;;;;;;;;;;;;;;;;5070752;28;19995;-50
2021/10/30 01:27:07;;;;;;;;;;;;;;;;;;5069927;28;19931;-52
2021/10/30 01:29:34;;;;;;;;;;;;;;;;;;5069725;28;20357;-50
2021/10/30 01:32:00;;;;;;;;;;;;;;;;;;5069995;28;19915;-52
2021/10/30 01:34:26;;;;;;;;;;;;;;;;;;5069867;28;19905;-52
2021/10/30 01:36:52;;;;;;;;;;;;;;;;;;5070042;28;19919;-52
2021/10/30 01:39:18;;;;;;;;;;;;;;;;;;5074490;28;20294;-52
2021/10/30 01:41:44;;;;;;;;;;;;;;;;;;5090979;28;19912;-50
2021/10/30 01:44:10;;;;;;;;;;;;;;;;;;5090505;28;19908;-52
2021/10/30 01:46:38;;;;;;;;;;;;;;;;;;5082583;28;20379;-49
2021/10/30 01:49:04;;;;;;;;;;;;;;;;;;5068888;28;20439;-52
2021/10/30 01:51:30;;;;;;;;;;;;;;;;;;5069658;28;20443;-51
2021/10/30 01:53:57;;;;;;;;;;;;;;;;;;5069683;28;19908;-52
2021/10/30 01:56:23;;;;;;;;;;;;;;;;;;5070672;28;19911;-53
2021/10/30 01:58:49;;;;;;;;;;;;;;;;;;5089762;28;19908;-50
2021/10/30 02:01:15;;;;;;;;;;;;;;;;;;5089655;28;19954;-52
2021/10/30 02:03:41;;;;;;;;;;;;;;;;;;5086934;28;19904;-53
2021/10/30 02:06:07;;;;;;;;;;;;;;;;;;5069269;28;19923;-51
2021/10/30 02:08:33;;;;;;;;;;;;;;;;;;5069278;28;19931;-52
2021/10/30 02:10:59;;;;;;;;;;;;;;;;;;5071575;28;19957;-51
2021/10/30 02:13:25;;;;;;;;;;;;;;;;;;5089558;28;19904;-53
2021/10/30 02:15:51;;;;;;;;;;;;;;;;;;5069040;28;19966;-52
2021/10/30 02:18:17;;;;;;;;;;;;;;;;;;5068633;28;19991;-50
2021/10/30 02:20:43;;;;;;;;;;;;;;;;;;5069895;28;19930;-49
2021/10/30 02:23:09;;;;;;;;;;;;;;;;;;5066936;28;19909;-52
2021/10/30 02:25:35;;;;;;;;;;;;;;;;;;5068574;28;19912;-51
2021/10/30 02:28:01;;;;;;;;;;;;;;;;;;5068302;28;19955;-51
2021/10/30 02:30:27;;;;;;;;;;;;;;;;;;5069175;28;19951;-51
2021/10/30 02:32:53;;;;;;;;;;;;;;;;;;5068799;28;19954;-53
2021/10/30 02:35:19;;;;;;;;;;;;;;;;;;5080237;28;20454;-51
2021/10/30 02:37:45;;;;;;;;;;;;;;;;;;5089006;28;20004;-52
2021/10/30 02:40:11;;;;;;;;;;;;;;;;;;5088102;28;19908;-51
2021/10/30 02:42:37;;;;;;;;;;;;;;;;;;5088413;28;19912;-51
2021/10/30 02:45:03;;;;;;;;;;;;;;;;;;5088712;28;19915;-51
2021/10/30 02:47:29;;;;;;;;;;;;;;;;;;5088729;28;19908;-50
2021/10/30 02:49:55;;;;;;;;;;;;;;;;;;5087066;28;19914;-52
2021/10/30 02:52:21;;;;;;;;;;;;;;;;;;5087267;28;19919;-51
2021/10/30 02:54:47;;;;;;;;;;;;;;;;;;5088774;28;19908;-50
2021/10/30 02:57:13;;;;;;;;;;;;;;;;;;5089033;28;19908;-51
2021/10/30 02:59:39;;;;;;;;;;;;;;;;;;5088642;28;19931;-49
2021/10/30 03:02:05;;;;;;;;;;;;;;;;;;5074629;28;19912;-51
2021/10/30 03:04:32;;;;;;;;;;;;;;;;;;5068185;28;19904;-50
2021/10/30 03:06:57;;;;;;;;;;;;;;;;;;5083897;28;19920;-50
2021/10/30 03:09:23;;;;;;;;;;;;;;;;;;5088131;28;19915;-50
2021/10/30 03:11:49;;;;;;;;;;;;;;;;;;5086346;28;19915;-52
2021/10/30 03:14:16;;;;;;;;;;;;;;;;;;5088174;28;19943;-50
2021/10/30 03:16:42;;;;;;;;;;;;;;;;;;5088994;28;19908;-49
2021/10/30 03:19:08;;;;;;;;;;;;;;;;;;5087713;28;19960;-52
2021/10/30 03:21:34;;;;;;;;;;;;;;;;;;5087027;28;19950;-52
2021/10/30 03:24:00;;;;;;;;;;;;;;;;;;5088000;28;19904;-52
2021/10/30 03:26:27;;;;;;;;;;;;;;;;;;5068632;28;19915;-47
2021/10/30 03:28:53;;;;;;;;;;;;;;;;;;5067709;28;19948;-49
2021/10/30 03:31:19;;;;;;;;;;;;;;;;;;5071948;28;19951;-47
2021/10/30 03:33:45;;;;;;;;;;;;;;;;;;5087902;28;19911;-49
2021/10/30 03:36:11;;;;;;;;;;;;;;;;;;5086440;28;20052;-47
2021/10/30 03:38:37;;;;;;;;;;;;;;;;;;5087882;28;20640;-47
2021/10/30 03:41:03;;;;;;;;;;;;;;;;;;5087581;28;20558;-50
2021/10/30 03:43:29;;;;;;;;;;;;;;;;;;5088086;28;19904;-48
2021/10/30 03:45:55;;;;;;;;;;;;;;;;;;5084312;28;19970;-48
2021/10/30 03:48:21;;;;;;;;;;;;;;;;;;5066498;28;19908;-47
2021/10/30 03:50:47;;;;;;;;;;;;;;;;;;5067426;28;19908;-48
2021/10/30 03:53:13;;;;;;;;;;;;;;;;;;5067751;28;19908;-50
2021/10/30 03:55:39;;;;;;;;;;;;;;;;;;5066932;28;19910;-48
2021/10/30 03:58:05;;;;;;;;;;;;;;;;;;5067131;28;20327;-50
2021/10/30 04:00:30;;;;;;;;;;;;;;;;;;5067234;28;20003;-52
2021/10/30 04:02:56;;;;;;;;;;;;;;;;;;5066887;28;19908;-48
2021/10/30 04:05:22;;;;;;;;;;;;;;;;;;5067577;28;19952;-48
2021/10/30 04:07:48;;;;;;;;;;;;;;;;;;5083290;28;19962;-50
2021/10/30 04:10:14;;;;;;;;;;;;;;;;;;5087587;28;20003;-52
2021/10/30 04:12:40;;;;;;;;;;;;;;;;;;5088210;28;19904;-49
2021/10/30 04:15:06;;;;;;;;;;;;;;;;;;5086704;28;19915;-50
2021/10/30 04:17:32;;;;;;;;;;;;;;;;;;5077599;28;19911;-49
2021/10/30 04:19:58;;;;;;;;;;;;;;;;;;5087094;28;19910;-48
2021/10/30 04:22:24;;;;;;;;;;;;;;;;;;5087244;28;19904;-49
2021/10/30 04:24:51;;;;;;;;;;;;;;;;;;5087039;28;19904;-48
2021/10/30 04:27:17;;;;;;;;;;;;;;;;;;5085950;28;19916;-51
2021/10/30 04:29:43;;;;;;;;;;;;;;;;;;5087743;28;20299;-51
2021/10/30 04:32:11;;;;;;;;;;;;;;;;;;5086788;28;19904;-52
2021/10/30 04:34:48;;;;;;;;;;;;;;;;;;5091633;28;19955;-51
2021/10/30 04:37:17;;;;;;;;;;;;;;;;;;5094295;28;19904;-52
2021/10/30 04:39:43;;;;;;;;;;;;;;;;;;5094372;28;20002;-51
2021/10/30 04:42:09;;;;;;;;;;;;;;;;;;5093761;28;19995;-53
2021/10/30 04:44:35;;;;;;;;;;;;;;;;;;5092441;28;20063;-53
2021/10/30 04:47:02;;;;;;;;;;;;;;;;;;5093285;28;20020;-51
2021/10/30 04:49:28;;;;;;;;;;;;;;;;;;5092897;28;19918;-52
2021/10/30 04:51:54;;;;;;;;;;;;;;;;;;5092592;28;19908;-50
2021/10/30 04:54:20;;;;;;;;;;;;;;;;;;5085547;28;19909;-52
2021/10/30 04:56:46;;;;;;;;;;;;;;;;;;5073293;28;19905;-50
2021/10/30 04:59:12;;;;;;;;;;;;;;;;;;5073805;28;19934;-50
2021/10/30 05:01:38;;;;;;;;;;;;;;;;;;5073080;28;19908;-51
2021/10/30 05:04:03;;;;;;;;;;;;;;;;;;5072498;28;19913;-49
2021/10/30 05:06:29;;;;;;;;;;;;;;;;;;5073067;28;19954;-52
2021/10/30 05:08:55;;;;;;;;;;;;;;;;;;5072979;28;19999;-53
2021/10/30 05:11:21;;;;;;;;;;;;;;;;;;5073053;28;19966;-49
2021/10/30 05:13:47;;;;;;;;;;;;;;;;;;5074139;28;19939;-52
2021/10/30 05:16:13;;;;;;;;;;;;;;;;;;5087083;28;19913;-52
2021/10/30 05:18:39;;;;;;;;;;;;;;;;;;5073020;28;19904;-49
2021/10/30 05:21:06;;;;;;;;;;;;;;;;;;5072930;28;19928;-51
2021/10/30 05:23:38;;;;;;;;;;;;;;;;;;5073331;28;19904;-51
2021/10/30 05:26:05;;;;;;;;;;;;;;;;;;5073034;28;19912;-52
2021/10/30 05:28:31;;;;;;;;;;;;;;;;;;5072994;28;19908;-50
2021/10/30 05:30:57;;;;;;;;;;;;;;;;;;5072553;28;20012;-52
2021/10/30 05:33:23;;;;;;;;;;;;;;;;;;5072994;28;19919;-51
2021/10/30 05:35:49;;;;;;;;;;;;;;;;;;5072465;28;19970;-52
2021/10/30 05:38:16;;;;;;;;;;;;;;;;;;5073215;28;19908;-52
2021/10/30 05:40:42;;;;;;;;;;;;;;;;;;5092451;28;19908;-50
2021/10/30 05:43:08;;;;;;;;;;;;;;;;;;5093117;28;19908;-52
2021/10/30 05:45:34;;;;;;;;;;;;;;;;;;5072587;28;19916;-52
2021/10/30 05:48:00;;;;;;;;;;;;;;;;;;5069542;28;19912;-50
2021/10/30 05:50:26;;;;;;;;;;;;;;;;;;5069355;28;20311;-51
2021/10/30 05:52:52;;;;;;;;;;;;;;;;;;5069523;28;20252;-49
2021/10/30 05:55:18;;;;;;;;;;;;;;;;;;5071462;28;21367;-47
2021/10/30 05:57:44;;;;;;;;;;;;;;;;;;5088577;28;19915;-52
2021/10/30 06:00:10;;;;;;;;;;;;;;;;;;5089774;28;19948;-50
2021/10/30 06:02:36;;;;;;;;;;;;;;;;;;5089621;28;20003;-49
2021/10/30 06:05:02;;;;;;;;;;;;;;;;;;5089527;28;19911;-52
2021/10/30 06:07:29;;;;;;;;;;;;;;;;;;5087917;28;19927;-49
2021/10/30 06:09:55;;;;;;;;;;;;;;;;;;5089273;28;20363;-51
2021/10/30 06:12:20;;;;;;;;;;;;;;;;;;5088501;28;19907;-48
2021/10/30 06:14:46;;;;;;;;;;;;;;;;;;5089404;28;20460;-49
2021/10/30 06:17:12;;;;;;;;;;;;;;;;;;5080047;28;20026;-48
2021/10/30 06:19:38;;;;;;;;;;;;;;;;;;5069155;28;19961;-50
2021/10/30 06:22:04;;;;;;;;;;;;;;;;;;5068848;28;19966;-50
2021/10/30 06:24:30;;;;;;;;;;;;;;;;;;5072958;28;19943;-48
2021/10/30 06:26:56;;;;;;;;;;;;;;;;;;5082004;28;19912;-49
2021/10/30 06:29:23;;;;;;;;;;;;;;;;;;5068875;28;20423;-48
2021/10/30 06:31:49;;;;;;;;;;;;;;;;;;5068797;28;19939;-49
2021/10/30 06:34:15;;;;;;;;;;;;;;;;;;5068217;28;19959;-51
2021/10/30 06:36:41;;;;;;;;;;;;;;;;;;5069396;28;20342;-50
2021/10/30 06:39:07;;;;;;;;;;;;;;;;;;5068394;28;19940;-50
2021/10/30 06:41:33;;;;;;;;;;;;;;;;;;5068013;28;19912;-49
2021/10/30 06:43:59;;;;;;;;;;;;;;;;;;5067756;28;19912;-52
2021/10/30 06:46:25;;;;;;;;;;;;;;;;;;5085296;28;19908;-52
2021/10/30 06:48:55;;;;;;;;;;;;;;;;;;5087504;28;19919;-47
2021/10/30 06:51:22;;;;;;;;;;;;;;;;;;5088505;28;19942;-49
2021/10/30 06:53:48;;;;;;;;;;;;;;;;;;5088895;28;19933;-51
2021/10/30 06:56:14;;;;;;;;;;;;;;;;;;5087568;28;20379;-52
2021/10/30 06:58:40;;;;;;;;;;;;;;;;;;5088696;28;19911;-47
2021/10/30 07:01:06;;;;;;;;;;;;;;;;;;5088150;28;20080;-51
2021/10/30 07:03:32;;;;;;;;;;;;;;;;;;5087555;28;19904;-52
2021/10/30 07:05:58;;;;;;;;;;;;;;;;;;5068037;28;19912;-51
2021/10/30 07:08:24;;;;;;;;;;;;;;;;;;5068069;28;19954;-51
2021/10/30 07:10:50;;;;;;;;;;;;;;;;;;5067985;28;19913;-52
2021/10/30 07:13:16;;;;;;;;;;;;;;;;;;5066489;28;19912;-51
2021/10/30 07:15:42;;;;;;;;;;;;;;;;;;5068389;28;19908;-51
2021/10/30 07:18:08;;;;;;;;;;;;;;;;;;5067938;28;19908;-50
2021/10/30 07:20:34;;;;;;;;;;;;;;;;;;5067973;28;19961;-50
2021/10/30 07:23:00;;;;;;;;;;;;;;;;;;5067228;28;19950;-51
2021/10/30 07:25:26;;;;;;;;;;;;;;;;;;5086451;28;19914;-51
2021/10/30 07:27:55;;;;;;;;;;;;;;;;;;5087777;28;20046;-51
2021/10/30 07:30:21;;;;;;;;;;;;;;;;;;5087556;28;19904;-51
2021/10/30 07:32:54;;;;;;;;;;;;;;;;;;5086272;28;19908;-50
2021/10/30 07:35:19;;;;;;;;;;;;;;;;;;5067082;28;19908;-51
2021/10/30 07:37:45;;;;;;;;;;;;;;;;;;5067632;28;19905;-52
2021/10/30 07:40:11;;;;;;;;;;;;;;;;;;5067785;28;19995;-52
2021/10/30 07:42:37;;;;;;;;;;;;;;;;;;5066837;28;20437;-52
2021/10/30 07:45:03;;;;;;;;;;;;;;;;;;5087015;28;19993;-49
2021/10/30 07:47:29;;;;;;;;;;;;;;;;;;5087678;28;19939;-51
2021/10/30 07:49:55;;;;;;;;;;;;;;;;;;5087163;28;19904;-48
2021/10/30 07:52:21;;;;;;;;;;;;;;;;;;5075095;28;19909;-50
2021/10/30 07:54:48;;;;;;;;;;;;;;;;;;5078181;28;19905;-52
2021/10/30 07:57:14;;;;;;;;;;;;;;;;;;5079103;28;19908;-51
2021/10/30 07:59:40;;;;;;;;;;;;;;;;;;5082582;28;19908;-51
2021/10/30 08:02:06;;;;;;;;;;;;;;;;;;5070493;28;19912;-49
2021/10/30 08:04:32;;;;;;;;;;;;;;;;;;5069881;28;19915;-53
2021/10/30 08:06:58;;;;;;;;;;;;;;;;;;5069481;28;19955;-49
2021/10/30 08:09:24;;;;;;;;;;;;;;;;;;5084075;28;19920;-51
2021/10/30 08:11:50;;;;;;;;;;;;;;;;;;5078530;28;19915;-52
2021/10/30 08:14:16;;;;;;;;;;;;;;;;;;5068307;28;19923;-51
2021/10/30 08:16:42;;;;;;;;;;;;;;;;;;5086020;28;19995;-51
2021/10/30 08:19:07;;;;;;;;;;;;;;;;;;5084844;28;19957;-51
2021/10/30 08:21:35;;;;;;;;;;;;;;;;;;5073702;28;19916;-52
2021/10/30 08:24:01;;;;;;;;;;;;;;;;;;5074937;28;19908;-51
2021/10/30 08:26:29;;;;;;;;;;;;;;;;;;5076766;28;19908;-53
2021/10/30 08:28:55;;;;;;;;;;;;;;;;;;5077817;28;19912;-52
2021/10/30 08:31:21;;;;;;;;;;;;;;;;;;5066610;28;19904;-51
2021/10/30 08:33:47;;;;;;;;;;;;;;;;;;5078645;28;19915;-51
2021/10/30 08:36:14;;;;;;;;;;;;;;;;;;5082115;28;19961;-51
2021/10/30 08:38:40;;;;;;;;;;;;;;;;;;5072545;28;19913;-50
2021/10/30 08:41:05;;;;;;;;;;;;;;;;;;5077644;28;20499;-49
2021/10/30 08:43:31;;;;;;;;;;;;;;;;;;5078734;28;19912;-51
2021/10/30 08:45:58;;;;;;;;;;;;;;;;;;5071195;28;20006;-52
2021/10/30 08:48:23;;;;;;;;;;;;;;;;;;5073226;28;19916;-51
2021/10/30 08:50:49;;;;;;;;;;;;;;;;;;5074405;28;19908;-51
2021/10/30 08:53:15;;;;;;;;;;;;;;;;;;5069135;28;19915;-53
2021/10/30 08:55:42;;;;;;;;;;;;;;;;;;5082816;28;19961;-51
2021/10/30 08:58:08;;;;;;;;;;;;;;;;;;5071834;28;19915;-48
2021/10/30 09:00:34;;;;;;;;;;;;;;;;;;5084160;28;19912;-50
2021/10/30 09:02:59;;;;;;;;;;;;;;;;;;5080648;28;19919;-50
2021/10/30 09:05:25;;;;;;;;;;;;;;;;;;5067998;28;19957;-48
2021/10/30 09:07:51;;;;;;;;;;;;;;;;;;5076063;28;19916;-49
2021/10/30 09:10:17;;;;;;;;;;;;;;;;;;5086420;28;20357;-47
2021/10/30 09:12:43;;;;;;;;;;;;;;;;;;5075025;28;20374;-52
2021/10/30 09:15:09;;;;;;;;;;;;;;;;;;5078091;28;19919;-51
2021/10/30 09:17:35;;;;;;;;;;;;;;;;;;5076678;28;19912;-51
2021/10/30 09:20:01;;;;;;;;;;;;;;;;;;5088530;28;19904;-50
2021/10/30 09:22:27;;;;;;;;;;;;;;;;;;5090299;28;20002;-50
2021/10/30 09:24:53;;;;;;;;;;;;;;;;;;5081597;28;19912;-52
2021/10/30 09:27:19;;;;;;;;;;;;;;;;;;5070159;28;19912;-51
2021/10/30 09:29:45;;;;;;;;;;;;;;;;;;5070025;28;20374;-52
2021/10/30 09:32:11;;;;;;;;;;;;;;;;;;5085433;28;19947;-50
2021/10/30 09:34:37;;;;;;;;;;;;;;;;;;5088009;28;19904;-52
2021/10/30 09:37:03;;;;;;;;;;;;;;;;;;5085165;28;19908;-51
2021/10/30 09:39:29;;;;;;;;;;;;;;;;;;5069964;28;19989;-53
2021/10/30 09:41:55;;;;;;;;;;;;;;;;;;5070803;28;19908;-53
2021/10/30 09:44:21;;;;;;;;;;;;;;;;;;5069234;28;19908;-52
2021/10/30 09:46:47;;;;;;;;;;;;;;;;;;5069589;28;19908;-52
2021/10/30 09:49:13;;;;;;;;;;;;;;;;;;5067514;28;19908;-51
2021/10/30 09:51:39;;;;;;;;;;;;;;;;;;5077865;28;20333;-51
2021/10/30 09:54:05;;;;;;;;;;;;;;;;;;5089686;28;19957;-52
2021/10/30 09:56:31;;;;;;;;;;;;;;;;;;5089898;28;19904;-52
2021/10/30 09:58:57;;;;;;;;;;;;;;;;;;5075665;28;19920;-52
2021/10/30 10:01:23;;;;;;;;;;;;;;;;;;5069557;28;19912;-51
2021/10/30 10:03:49;;;;;;;;;;;;;;;;;;5068971;28;19908;-50
2021/10/30 10:06:17;;;;;;;;;;;;;;;;;;5073192;28;19912;-53
2021/10/30 10:08:43;;;;;;;;;;;;;;;;;;5089193;28;20409;-53
2021/10/30 10:11:10;;;;;;;;;;;;;;;;;;5089099;28;20022;-52
2021/10/30 10:13:36;;;;;;;;;;;;;;;;;;5089380;28;19954;-53
2021/10/30 10:16:02;;;;;;;;;;;;;;;;;;5087381;28;19908;-51
2021/10/30 10:18:28;;;;;;;;;;;;;;;;;;5070472;28;19908;-52
2021/10/30 10:20:53;;;;;;;;;;;;;;;;;;5067801;28;19919;-51
2021/10/30 10:23:19;;;;;;;;;;;;;;;;;;5071601;28;20267;-48
2021/10/30 10:25:45;;;;;;;;;;;;;;;;;;5078564;28;19908;-51
2021/10/30 10:28:11;;;;;;;;;;;;;;;;;;5085671;28;19919;-50
2021/10/30 10:30:37;;;;;;;;;;;;;;;;;;5068392;28;19904;-48
2021/10/30 10:33:03;;;;;;;;;;;;;;;;;;5068723;28;19944;-49
2021/10/30 10:35:29;;;;;;;;;;;;;;;;;;5075095;28;19965;-51
2021/10/30 10:37:55;;;;;;;;;;;;;;;;;;5089602;28;19986;-49
2021/10/30 10:40:21;;;;;;;;;;;;;;;;;;5088784;28;19998;-50
2021/10/30 10:42:47;;;;;;;;;;;;;;;;;;5088630;28;19911;-48
2021/10/30 10:45:13;;;;;;;;;;;;;;;;;;5086738;28;19908;-49
2021/10/30 10:47:39;;;;;;;;;;;;;;;;;;5088868;28;19912;-51
2021/10/30 10:50:05;;;;;;;;;;;;;;;;;;5088019;28;19904;-50
2021/10/30 10:52:31;;;;;;;;;;;;;;;;;;5086521;28;19912;-50
2021/10/30 10:55:03;;;;;;;;;;;;;;;;;;5072424;28;19912;-52
2021/10/30 10:57:29;;;;;;;;;;;;;;;;;;5081965;28;19920;-53
2021/10/30 10:59:55;;;;;;;;;;;;;;;;;;5077024;28;19999;-52
2021/10/30 11:02:21;;;;;;;;;;;;;;;;;;5072823;28;19998;-50
2021/10/30 11:04:47;;;;;;;;;;;;;;;;;;5086444;28;19904;-49
2021/10/30 11:07:13;;;;;;;;;;;;;;;;;;5068628;28;19912;-49
2021/10/30 11:09:39;;;;;;;;;;;;;;;;;;5068028;28;19953;-48
2021/10/30 11:12:05;;;;;;;;;;;;;;;;;;5067990;28;19951;-49
2021/10/30 11:14:31;;;;;;;;;;;;;;;;;;5067961;28;19938;-51
2021/10/30 11:16:57;;;;;;;;;;;;;;;;;;5068185;28;19954;-52
2021/10/30 11:19:34;;;;;;;;;;;;;;;;;;5068196;28;20296;-51
2021/10/30 11:22:00;;;;;;;;;;;;;;;;;;5078104;28;19939;-52
2021/10/30 11:24:27;;;;;;;;;;;;;;;;;;5088725;28;19951;-50
2021/10/30 11:26:53;;;;;;;;;;;;;;;;;;5071390;28;19953;-51
2021/10/30 11:29:19;;;;;;;;;;;;;;;;;;5067183;28;19912;-52
2021/10/30 11:31:45;;;;;;;;;;;;;;;;;;5068192;28;20062;-53
2021/10/30 11:34:11;;;;;;;;;;;;;;;;;;5074615;28;19912;-50
2021/10/30 11:36:37;;;;;;;;;;;;;;;;;;5068299;28;19912;-52
2021/10/30 11:39:03;;;;;;;;;;;;;;;;;;5079206;28;19907;-52
2021/10/30 11:41:29;;;;;;;;;;;;;;;;;;5070822;28;20461;-49
2021/10/30 11:43:55;;;;;;;;;;;;;;;;;;5073083;28;19915;-51
2021/10/30 11:46:21;;;;;;;;;;;;;;;;;;5087401;28;20406;-52
2021/10/30 11:48:47;;;;;;;;;;;;;;;;;;5085535;28;20011;-52
2021/10/30 11:51:13;;;;;;;;;;;;;;;;;;5087154;28;19904;-53
2021/10/30 11:53:39;;;;;;;;;;;;;;;;;;5072699;28;19913;-51
2021/10/30 11:56:08;;;;;;;;;;;;;;;;;;5067214;28;20278;-51
2021/10/30 11:58:33;;;;;;;;;;;;;;;;;;5071050;28;19965;-52
2021/10/30 12:00:59;;;;;;;;;;;;;;;;;;5087834;28;19908;-50
2021/10/30 12:03:25;;;;;;;;;;;;;;;;;;5074142;28;19908;-52
2021/10/30 12:05:51;;;;;;;;;;;;;;;;;;5072532;28;19912;-50
2021/10/30 12:08:17;;;;;;;;;;;;;;;;;;5072433;28;19999;-52
2021/10/30 12:10:43;;;;;;;;;;;;;;;;;;5066628;28;19912;-52
2021/10/30 12:13:09;;;;;;;;;;;;;;;;;;5070844;28;19912;-52
2021/10/30 12:15:35;;;;;;;;;;;;;;;;;;5067018;28;19904;-50
2021/10/30 12:18:01;;;;;;;;;;;;;;;;;;5067577;28;19904;-49
2021/10/30 12:20:27;;;;;;;;;;;;;;;;;;5067535;28;19927;-51
2021/10/30 12:22:53;;;;;;;;;;;;;;;;;;5074827;28;19908;-48
2021/10/30 12:25:19;;;;;;;;;;;;;;;;;;5085743;28;19962;-53
2021/10/30 12:27:45;;;;;;;;;;;;;;;;;;5086526;28;19934;-50
2021/10/30 12:30:11;;;;;;;;;;;;;;;;;;5086547;28;19904;-52
2021/10/30 12:32:37;;;;;;;;;;;;;;;;;;5081272;28;19912;-52
2021/10/30 12:35:03;;;;;;;;;;;;;;;;;;5066530;28;19920;-52
2021/10/30 12:37:29;;;;;;;;;;;;;;;;;;5067476;28;19908;-52
2021/10/30 12:39:55;;;;;;;;;;;;;;;;;;5066775;28;19911;-50
2021/10/30 12:42:21;;;;;;;;;;;;;;;;;;5066218;28;20435;-52
2021/10/30 12:44:47;;;;;;;;;;;;;;;;;;5066704;28;20000;-52
2021/10/30 12:47:13;;;;;;;;;;;;;;;;;;5067841;28;19911;-52
2021/10/30 12:49:40;;;;;;;;;;;;;;;;;;5066105;28;20030;-53
2021/10/30 12:52:07;;;;;;;;;;;;;;;;;;5066605;28;20260;-52
2021/10/30 12:54:33;;;;;;;;;;;;;;;;;;5068354;28;20425;-52
2021/10/30 12:56:59;;;;;;;;;;;;;;;;;;5071000;28;20374;-53
2021/10/30 12:59:26;;;;;;;;;;;;;;;;;;5087219;28;20341;-52
2021/10/30 13:01:52;;;;;;;;;;;;;;;;;;5089661;28;20693;-51
2021/10/30 13:04:18;;;;;;;;;;;;;;;;;;5080149;28;20391;-52
2021/10/30 13:06:45;;;;;;;;;;;;;;;;;;5074724;28;19999;-52
2021/10/30 13:09:11;;;;;;;;;;;;;;;;;;5070990;28;20430;-52
2021/10/30 13:11:37;;;;;;;;;;;;;;;;;;5070159;28;19908;-52
2021/10/30 13:14:03;;;;;;;;;;;;;;;;;;5070015;28;20653;-49
2021/10/30 13:16:29;;;;;;;;;;;;;;;;;;5070820;28;19912;-50
2021/10/30 13:18:55;;;;;;;;;;;;;;;;;;5072913;28;19908;-52
2021/10/30 13:21:21;;;;;;;;;;;;;;;;;;5073205;28;19919;-52
2021/10/30 13:23:47;;;;;;;;;;;;;;;;;;5081058;28;19908;-51
2021/10/30 13:26:13;;;;;;;;;;;;;;;;;;5076276;28;19915;-50
2021/10/30 13:28:39;;;;;;;;;;;;;;;;;;5100669;28;20010;-52
2021/10/30 13:31:05;;;;;;;;;;;;;;;;;;5090148;28;19904;-52
2021/10/30 13:33:31;;;;;;;;;;;;;;;;;;5078055;28;19998;-51
2021/10/30 13:35:57;;;;;;;;;;;;;;;;;;5069255;28;19918;-52
2021/10/30 13:38:23;;;;;;;;;;;;;;;;;;5087607;28;19993;-52
2021/10/30 13:40:49;;;;;;;;;;;;;;;;;;5077020;28;19912;-52
2021/10/30 13:43:15;;;;;;;;;;;;;;;;;;5068803;28;19908;-49
2021/10/30 13:45:41;;;;;;;;;;;;;;;;;;5069679;28;19995;-49
2021/10/30 13:48:07;;;;;;;;;;;;;;;;;;5069013;28;19927;-50
2021/10/30 13:50:33;;;;;;;;;;;;;;;;;;5069140;28;19904;-48
2021/10/30 13:52:59;;;;;;;;;;;;;;;;;;5089848;28;19922;-50
2021/10/30 13:55:25;;;;;;;;;;;;;;;;;;5089911;28;19915;-47
2021/10/30 13:57:51;;;;;;;;;;;;;;;;;;5087777;28;19908;-47
2021/10/30 14:00:17;;;;;;;;;;;;;;;;;;5087373;28;19999;-50
2021/10/30 14:02:43;;;;;;;;;;;;;;;;;;5069312;28;19951;-53
2021/10/30 14:05:09;;;;;;;;;;;;;;;;;;5068651;28;19935;-51
2021/10/30 14:07:35;;;;;;;;;;;;;;;;;;5068471;28;19938;-51
2021/10/30 14:10:01;;;;;;;;;;;;;;;;;;5069293;28;19916;-52
2021/10/30 14:12:27;;;;;;;;;;;;;;;;;;5068779;28;19908;-49
2021/10/30 14:14:53;;;;;;;;;;;;;;;;;;5068605;28;20323;-49
2021/10/30 14:17:18;;;;;;;;;;;;;;;;;;5068908;28;19930;-47
2021/10/30 14:19:44;;;;;;;;;;;;;;;;;;5071136;28;19916;-51
2021/10/30 14:22:10;;;;;;;;;;;;;;;;;;5077795;28;19908;-51
2021/10/30 14:24:36;;;;;;;;;;;;;;;;;;5082790;28;19973;-53
2021/10/30 14:27:02;;;;;;;;;;;;;;;;;;5086782;28;19998;-53
2021/10/30 14:29:28;;;;;;;;;;;;;;;;;;5069504;28;19908;-51
2021/10/30 14:31:57;;;;;;;;;;;;;;;;;;5068385;28;19923;-52
2021/10/30 14:34:23;;;;;;;;;;;;;;;;;;5068443;28;19912;-51
2021/10/30 14:36:49;;;;;;;;;;;;;;;;;;5068697;28;20379;-52
2021/10/30 14:39:15;;;;;;;;;;;;;;;;;;5082610;28;19908;-50
2021/10/30 14:41:41;;;;;;;;;;;;;;;;;;5088585;28;20321;-50
2021/10/30 14:44:07;;;;;;;;;;;;;;;;;;5074710;28;19908;-52
2021/10/30 14:46:33;;;;;;;;;;;;;;;;;;5074376;28;19947;-52
2021/10/30 14:48:59;;;;;;;;;;;;;;;;;;5083951;28;20468;-52
2021/10/30 14:51:25;;;;;;;;;;;;;;;;;;5081743;28;19958;-49
2021/10/30 14:53:51;;;;;;;;;;;;;;;;;;5080225;28;19908;-51
2021/10/30 14:56:17;;;;;;;;;;;;;;;;;;5087024;28;19918;-51
2021/10/30 14:58:43;;;;;;;;;;;;;;;;;;5088472;28;20287;-52
2021/10/30 15:01:09;;;;;;;;;;;;;;;;;;5088305;28;19908;-53
2021/10/30 15:03:35;;;;;;;;;;;;;;;;;;5077983;28;20003;-50
2021/10/30 15:06:01;;;;;;;;;;;;;;;;;;5068558;28;19927;-49
2021/10/30 15:08:27;;;;;;;;;;;;;;;;;;5068374;28;20003;-50
2021/10/30 15:10:53;;;;;;;;;;;;;;;;;;5067161;28;20015;-50
2021/10/30 15:13:19;;;;;;;;;;;;;;;;;;5071245;28;19909;-51
2021/10/30 15:15:45;;;;;;;;;;;;;;;;;;5083710;28;19919;-48
2021/10/30 15:18:11;;;;;;;;;;;;;;;;;;5069708;28;19912;-48
2021/10/30 15:20:37;;;;;;;;;;;;;;;;;;5082944;28;19915;-48
2021/10/30 15:23:03;;;;;;;;;;;;;;;;;;5082879;28;19908;-49
2021/10/30 15:25:29;;;;;;;;;;;;;;;;;;5067141;28;19951;-50
2021/10/30 15:27:55;;;;;;;;;;;;;;;;;;5072242;28;19966;-51
2021/10/30 15:30:21;;;;;;;;;;;;;;;;;;5072785;28;19975;-51
2021/10/30 15:32:47;;;;;;;;;;;;;;;;;;5067147;28;19927;-50
2021/10/30 15:35:14;;;;;;;;;;;;;;;;;;5066625;28;19958;-49
2021/10/30 15:37:40;;;;;;;;;;;;;;;;;;5065815;28;19908;-50
2021/10/30 15:40:06;;;;;;;;;;;;;;;;;;5065971;28;20288;-50
2021/10/30 15:42:32;;;;;;;;;;;;;;;;;;5078304;28;19912;-53
2021/10/30 15:44:58;;;;;;;;;;;;;;;;;;5065801;28;20291;-49
2021/10/30 15:47:24;;;;;;;;;;;;;;;;;;5067026;28;19908;-48
2021/10/30 15:49:50;;;;;;;;;;;;;;;;;;5070249;28;19918;-52
2021/10/30 15:52:18;;;;;;;;;;;;;;;;;;5082188;28;19971;-50
2021/10/30 15:54:44;;;;;;;;;;;;;;;;;;5086790;28;20356;-51
2021/10/30 15:57:10;;;;;;;;;;;;;;;;;;5082719;28;20378;-52
2021/10/30 15:59:36;;;;;;;;;;;;;;;;;;5069385;28;19915;-50
2021/10/30 16:02:03;;;;;;;;;;;;;;;;;;5064203;28;19916;-49
2021/10/30 16:04:30;;;;;;;;;;;;;;;;;;5065964;28;19915;-51
2021/10/30 16:06:56;;;;;;;;;;;;;;;;;;5068456;28;19909;-47
2021/10/30 16:09:22;;;;;;;;;;;;;;;;;;5083598;28;20367;-49
2021/10/30 16:11:50;;;;;;;;;;;;;;;;;;5078376;28;19904;-50
2021/10/30 16:14:16;;;;;;;;;;;;;;;;;;5064328;28;19954;-47
2021/10/30 16:16:42;;;;;;;;;;;;;;;;;;5072743;28;19995;-50
2021/10/30 16:19:08;;;;;;;;;;;;;;;;;;5066490;28;20001;-51
2021/10/30 16:21:34;;;;;;;;;;;;;;;;;;5064834;28;20371;-48
2021/10/30 16:24:00;;;;;;;;;;;;;;;;;;5064984;28;19908;-49
2021/10/30 16:26:25;;;;;;;;;;;;;;;;;;5069445;28;19915;-48
2021/10/30 16:28:52;;;;;;;;;;;;;;;;;;5085814;28;20016;-48
2021/10/30 16:31:18;;;;;;;;;;;;;;;;;;5092438;28;20301;-47
2021/10/30 16:33:44;;;;;;;;;;;;;;;;;;5083772;28;19915;-51
2021/10/30 16:36:10;;;;;;;;;;;;;;;;;;5079184;28;19995;-48
2021/10/30 16:38:37;;;;;;;;;;;;;;;;;;5064752;28;19916;-48